Seville, Ohio
Current Conditions -  °F | °C
As of 10:56 PM on Wednesday 26 Nov 2014 (Local Time) from KBJJ Reporting Station
Few Clouds Few Clouds  
Wind Chill: 24°   Ceiling: Unl
Heat Index: 29°   Visibility: 7mi
Dew Point: 26°   Wind: 5mph
Humidity: 89%   Direction: 300°WNW
Pressure: 30.02"   Gusts: NA
Location:  41.01°N, 81.86°W
Report Text: KBJJ 270356Z AUTO 30004KT 7SM FEW039 M02/M03 A3002 RMK AO2 SLP180 T10171033 TSNO
Loading
Personal Weather Stations






























Interactive Weather Map New forecast layout! Learn more

10-Day Weather Forecast

Advertisements
Track Severe Weather on mobile